createdAt,value
2022-10-28T00:01:27.116Z,24.10
2022-10-28T00:03:57.862Z,23.80
2022-10-28T00:06:32.626Z,22.90
2022-10-28T00:09:01.228Z,29.80
2022-10-28T00:11:34.813Z,26.60
2022-10-28T00:14:05.218Z,24.50
2022-10-28T00:16:35.570Z,22.70
2022-10-28T00:19:05.389Z,18.40
2022-10-28T00:21:36.635Z,22.10
2022-10-28T00:24:06.535Z,21.60
2022-10-28T00:26:37.178Z,24.20
2022-10-28T00:29:19.635Z,22.30
2022-10-28T00:31:47.918Z,22.20
2022-10-28T00:34:18.658Z,23.30
2022-10-28T00:36:48.280Z,23.50
2022-10-28T00:39:24.380Z,20.70
2022-10-28T00:41:58.354Z,18.70
2022-10-28T00:44:48.644Z,20.70
2022-10-28T00:47:34.817Z,18.80
2022-10-28T00:50:11.925Z,19.60
2022-10-28T00:52:41.948Z,21.40
2022-10-28T00:55:10.029Z,14.60
2022-10-28T00:57:39.694Z,21.90
2022-10-28T01:00:08.637Z,20.10
2022-10-28T01:02:45.863Z,22.00
2022-10-28T01:05:16.736Z,16.20
2022-10-28T01:07:45.323Z,24.40
2022-10-28T01:10:15.146Z,22.20
2022-10-28T01:13:15.479Z,15.10
2022-10-28T01:15:49.570Z,18.30
2022-10-28T01:18:29.327Z,16.20
2022-10-28T01:21:00.504Z,22.20
2022-10-28T01:23:39.711Z,18.70
2022-10-28T01:26:26.299Z,17.50
2022-10-28T01:29:17.468Z,18.50
2022-10-28T01:32:01.271Z,17.10
2022-10-28T01:34:59.721Z,16.60
2022-10-28T01:37:47.993Z,16.40
2022-10-28T01:40:22.904Z,17.50
2022-10-28T01:43:05.862Z,13.40
2022-10-28T01:45:55.592Z,12.50
2022-10-28T01:48:33.890Z,16.30
2022-10-28T01:51:21.439Z,27.40
2022-10-28T01:53:54.001Z,14.20
2022-10-28T01:56:26.404Z,13.70
2022-10-28T01:58:59.503Z,12.70
2022-10-28T02:01:30.286Z,14.30
2022-10-28T02:03:59.009Z,22.40
2022-10-28T02:06:30.296Z,13.50
2022-10-28T02:09:01.466Z,23.60
2022-10-28T02:12:07.239Z,12.10
2022-10-28T02:15:04.432Z,12.00
2022-10-28T02:17:51.001Z,15.10
2022-10-28T02:20:37.475Z,10.90
2022-10-28T02:23:16.946Z,13.90
2022-10-28T02:25:55.433Z,11.80
2022-10-28T02:28:55.061Z,14.00
2022-10-28T02:31:25.818Z,15.80
2022-10-28T02:33:59.878Z,13.80
2022-10-28T02:36:30.165Z,13.70
2022-10-28T02:39:00.315Z,12.90
2022-10-28T02:41:40.121Z,11.30
2022-10-28T02:44:12.402Z,15.90
2022-10-28T02:46:45.288Z,13.60
2022-10-28T02:49:14.725Z,16.40
2022-10-28T02:52:03.703Z,14.60
2022-10-28T02:54:39.822Z,14.00
2022-10-28T02:57:15.760Z,17.90
2022-10-28T02:59:44.127Z,16.80
2022-10-28T03:02:12.049Z,14.40
2022-10-28T03:04:40.306Z,16.80
2022-10-28T03:07:08.083Z,18.50
2022-10-28T03:09:36.541Z,19.50
2022-10-28T03:12:05.158Z,15.50
2022-10-28T03:14:33.041Z,16.60
2022-10-28T03:17:01.317Z,17.50
2022-10-28T03:19:29.730Z,26.10
2022-10-28T03:21:57.569Z,30.80
2022-10-28T03:24:25.593Z,31.10
2022-10-28T03:26:53.829Z,31.50
2022-10-28T03:29:21.636Z,27.00
2022-10-28T03:31:49.746Z,26.60
2022-10-28T03:34:17.558Z,28.80
2022-10-28T03:36:45.356Z,26.80
2022-10-28T03:39:15.996Z,28.90
2022-10-28T03:41:44.120Z,29.30
2022-10-28T03:44:12.054Z,27.60
2022-10-28T03:46:39.980Z,32.10
2022-10-28T03:49:08.239Z,30.30
2022-10-28T03:51:36.048Z,31.50
2022-10-28T03:54:03.923Z,36.30
2022-10-28T03:56:31.787Z,37.50
2022-10-28T03:59:00.019Z,29.20
2022-10-28T04:01:27.999Z,33.40
2022-10-28T04:03:56.202Z,34.60
2022-10-28T04:06:24.474Z,35.10
2022-10-28T04:08:52.688Z,34.00
2022-10-28T04:11:20.897Z,34.10
2022-10-28T04:13:48.740Z,36.60
2022-10-28T04:16:16.888Z,35.10
2022-10-28T04:18:45.214Z,31.60
2022-10-28T04:21:13.750Z,36.20
2022-10-28T04:23:41.863Z,34.90
2022-10-28T04:26:10.034Z,30.70
2022-10-28T04:28:37.857Z,33.40
2022-10-28T04:31:05.818Z,34.40
2022-10-28T04:33:33.754Z,38.90
2022-10-28T04:36:01.629Z,31.30
2022-10-28T04:38:29.464Z,32.90
2022-10-28T04:40:57.711Z,31.80
2022-10-28T04:43:25.634Z,23.50
2022-10-28T04:45:53.433Z,25.40
2022-10-28T04:48:21.980Z,19.30
2022-10-28T04:50:51.310Z,17.10
2022-10-28T04:53:19.468Z,17.10
2022-10-28T04:55:47.612Z,16.20
2022-10-28T04:58:15.547Z,16.20
2022-10-28T05:00:43.771Z,14.50
2022-10-28T05:03:11.618Z,12.20
2022-10-28T05:05:40.834Z,11.70
2022-10-28T05:08:09.076Z,16.80
2022-10-28T05:10:37.301Z,13.90
2022-10-28T05:13:05.222Z,9.70
2022-10-28T05:15:33.557Z,13.50
2022-10-28T05:18:01.394Z,16.30
2022-10-28T05:20:29.515Z,10.40
2022-10-28T05:22:58.308Z,15.10
2022-10-28T05:25:26.463Z,21.70
2022-10-28T05:27:58.604Z,13.50
2022-10-28T05:30:27.409Z,12.70
2022-10-28T05:33:02.911Z,12.40
2022-10-28T05:35:31.452Z,20.70
2022-10-28T05:37:59.639Z,21.50
2022-10-28T05:40:27.459Z,17.20
2022-10-28T05:42:55.696Z,20.20
2022-10-28T05:45:24.561Z,32.30
2022-10-28T05:47:52.769Z,24.80
2022-10-28T05:50:21.767Z,19.80
2022-10-28T05:52:54.548Z,15.60
2022-10-28T05:55:25.508Z,25.10
2022-10-28T06:00:26.680Z,22.30
2022-10-28T06:03:09.546Z,26.90
2022-10-28T06:05:39.440Z,28.60
2022-10-28T06:08:07.624Z,37.20
2022-10-28T06:10:35.456Z,28.60
2022-10-28T06:13:02.143Z,25.20
2022-10-28T06:15:30.191Z,23.70
2022-10-28T06:17:58.119Z,29.90
2022-10-28T06:20:25.955Z,31.00
2022-10-28T06:22:55.869Z,34.90
2022-10-28T06:25:25.629Z,30.30
2022-10-28T06:27:55.847Z,29.90
2022-10-28T06:30:26.048Z,28.80
2022-10-28T06:32:57.625Z,30.70
2022-10-28T06:35:25.771Z,35.00
2022-10-28T06:37:55.659Z,28.50
2022-10-28T06:40:24.569Z,37.10
2022-10-28T06:42:57.021Z,39.20
2022-10-28T06:45:26.651Z,40.60
2022-10-28T06:48:04.722Z,46.00
2022-10-28T06:50:34.556Z,41.10
2022-10-28T06:53:03.600Z,50.10
2022-10-28T06:55:31.632Z,34.70
2022-10-28T06:58:01.329Z,33.10
2022-10-28T07:00:33.766Z,33.30
2022-10-28T07:03:03.334Z,31.90
2022-10-28T07:05:31.630Z,19.70
2022-10-28T07:07:59.617Z,15.30
2022-10-28T07:10:27.532Z,16.70
2022-10-28T07:12:55.941Z,17.30
2022-10-28T07:15:24.393Z,23.80
2022-10-28T07:17:57.192Z,17.60
2022-10-28T07:20:27.721Z,17.80
2022-10-28T07:23:00.910Z,16.10
2022-10-28T07:25:30.793Z,13.60
2022-10-28T07:27:59.643Z,13.70
2022-10-28T07:30:29.146Z,15.70
2022-10-28T07:33:01.048Z,17.30
2022-10-28T07:35:29.369Z,16.80
2022-10-28T07:37:58.822Z,15.00
2022-10-28T07:40:27.808Z,17.00
2022-10-28T07:42:56.146Z,16.90
2022-10-28T07:45:24.473Z,15.60
2022-10-28T07:47:52.689Z,14.50
2022-10-28T07:50:20.857Z,13.50
2022-10-28T07:52:49.011Z,15.60
2022-10-28T07:55:16.974Z,15.60
2022-10-28T07:57:45.117Z,22.60
2022-10-28T08:00:13.720Z,14.30
2022-10-28T08:02:42.751Z,25.70
2022-10-28T08:05:10.671Z,18.90
2022-10-28T08:07:39.140Z,15.60
2022-10-28T08:10:08.064Z,13.10
2022-10-28T08:12:36.686Z,25.60
2022-10-28T08:15:05.526Z,15.70
2022-10-28T08:17:33.306Z,16.90
2022-10-28T08:20:01.504Z,14.00
2022-10-28T08:22:29.908Z,20.30
2022-10-28T08:24:57.804Z,13.70
2022-10-28T08:27:26.098Z,20.00
2022-10-28T08:29:54.788Z,18.20
2022-10-28T08:32:22.761Z,11.50
2022-10-28T08:34:50.679Z,15.10
2022-10-28T08:37:18.614Z,15.50
2022-10-28T08:39:46.495Z,20.00
2022-10-28T08:42:50.811Z,20.30
2022-10-28T08:45:30.962Z,14.80
2022-10-28T08:48:20.716Z,18.10
2022-10-28T08:50:53.335Z,12.70
2022-10-28T08:53:26.096Z,16.40
2022-10-28T08:55:59.482Z,15.10
2022-10-28T08:58:34.305Z,16.50
2022-10-28T09:01:05.727Z,13.50
2022-10-28T09:03:41.571Z,17.90
2022-10-28T09:06:11.316Z,15.40
2022-10-28T09:08:48.907Z,23.30
2022-10-28T09:11:51.242Z,20.40
2022-10-28T09:14:25.331Z,25.80
2022-10-28T09:16:59.291Z,12.70
2022-10-28T09:19:40.472Z,15.50
2022-10-28T09:22:20.764Z,15.80
2022-10-28T09:24:53.805Z,21.30
2022-10-28T09:27:37.874Z,13.40
2022-10-28T09:30:30.697Z,17.40
2022-10-28T09:33:37.536Z,25.00
2022-10-28T09:36:11.661Z,15.30
2022-10-28T09:38:40.513Z,18.70
2022-10-28T09:41:20.149Z,12.20
2022-10-28T09:43:55.576Z,17.10
2022-10-28T09:46:31.953Z,12.40
2022-10-28T09:49:06.265Z,15.20
2022-10-28T09:51:37.851Z,20.40
2022-10-28T09:54:05.858Z,15.10
2022-10-28T09:56:33.805Z,12.60
2022-10-28T09:59:03.425Z,18.80
2022-10-28T10:01:34.444Z,17.60
2022-10-28T10:04:03.569Z,18.10
2022-10-28T10:06:39.642Z,13.70
2022-10-28T10:09:18.439Z,20.30
2022-10-28T10:11:49.319Z,17.70
2022-10-28T10:14:29.884Z,20.30
2022-10-28T10:17:03.999Z,17.50
2022-10-28T10:19:57.157Z,19.10
2022-10-28T10:22:49.016Z,14.60
2022-10-28T10:25:19.944Z,19.90
2022-10-28T10:27:55.666Z,18.40
2022-10-28T10:30:28.887Z,19.60
2022-10-28T10:32:58.903Z,14.70
2022-10-28T10:35:30.847Z,18.20
2022-10-28T10:38:01.449Z,25.60
2022-10-28T10:40:50.890Z,13.10
2022-10-28T10:43:18.704Z,21.30
2022-10-28T10:46:16.698Z,12.40
2022-10-28T10:48:45.257Z,11.60
2022-10-28T10:51:23.452Z,8.90
2022-10-28T10:53:56.127Z,12.10
2022-10-28T10:56:27.537Z,10.10
2022-10-28T10:58:59.169Z,12.30
2022-10-28T11:01:33.405Z,9.20
2022-10-28T11:04:04.506Z,15.20
2022-10-28T11:06:37.317Z,12.70
2022-10-28T11:09:08.560Z,10.00
2022-10-28T11:11:38.548Z,17.30
2022-10-28T11:14:09.569Z,13.60
2022-10-28T11:16:52.057Z,10.20
2022-10-28T11:19:22.360Z,13.50
2022-10-28T11:22:14.848Z,8.10
2022-10-28T11:25:24.317Z,11.80
2022-10-28T11:28:20.364Z,12.40
2022-10-28T11:31:03.971Z,9.50
2022-10-28T11:34:02.042Z,8.50
2022-10-28T11:36:38.521Z,14.70
2022-10-28T11:39:16.190Z,16.90
2022-10-28T11:42:08.693Z,12.40
2022-10-28T11:45:01.506Z,10.30
2022-10-28T11:47:48.491Z,11.30
2022-10-28T11:50:28.558Z,13.90
2022-10-28T11:53:11.711Z,12.80
2022-10-28T11:55:47.775Z,10.10
2022-10-28T11:58:31.691Z,15.00
2022-10-28T12:01:02.678Z,9.60
2022-10-28T12:03:42.692Z,14.60
2022-10-28T12:06:36.566Z,15.40
2022-10-28T12:09:25.821Z,15.30
2022-10-28T12:12:03.983Z,15.50
2022-10-28T12:14:57.541Z,11.70
2022-10-28T12:17:44.125Z,15.90
2022-10-28T12:20:23.531Z,12.60
2022-10-28T12:22:53.287Z,19.20
2022-10-28T12:25:27.120Z,16.20
2022-10-28T12:28:02.655Z,18.90
2022-10-28T12:30:34.783Z,15.90
2022-10-28T12:33:20.940Z,12.30
2022-10-28T12:36:13.017Z,13.20
2022-10-28T12:38:48.820Z,16.20
2022-10-28T12:41:46.632Z,16.10
2022-10-28T12:44:20.433Z,14.00
2022-10-28T12:46:52.922Z,14.50
2022-10-28T12:50:02.808Z,16.80
2022-10-28T12:52:54.438Z,16.10
2022-10-28T12:55:40.355Z,15.30
2022-10-28T12:58:38.708Z,15.50
2022-10-28T13:01:15.441Z,14.10
2022-10-28T13:03:43.481Z,15.80
2022-10-28T13:06:25.584Z,15.30
2022-10-28T13:09:12.003Z,11.80
2022-10-28T13:11:58.914Z,12.40
2022-10-28T13:15:13.945Z,13.40
2022-10-28T13:18:19.821Z,14.50
2022-10-28T13:21:12.735Z,15.90
2022-10-28T13:23:48.271Z,12.50
2022-10-28T13:26:36.045Z,17.20
2022-10-28T13:29:07.805Z,11.80
2022-10-28T13:31:46.865Z,13.10
2022-10-28T13:34:18.197Z,11.80
2022-10-28T13:36:57.644Z,13.20
2022-10-28T13:39:47.330Z,27.80
2022-10-28T13:42:15.588Z,16.20
2022-10-28T13:44:50.812Z,16.90
2022-10-28T13:47:35.682Z,17.80
2022-10-28T13:50:06.851Z,18.20
2022-10-28T13:52:42.604Z,18.20
2022-10-28T13:55:42.372Z,17.10
2022-10-28T13:58:26.021Z,24.30
2022-10-28T14:00:55.207Z,16.80
2022-10-28T14:03:26.824Z,22.00
2022-10-28T14:05:59.678Z,20.90
2022-10-28T14:08:33.996Z,26.30
2022-10-28T14:11:13.033Z,15.10
2022-10-28T14:13:50.025Z,18.60
2022-10-28T14:16:26.864Z,21.60
2022-10-28T14:19:06.115Z,23.50
2022-10-28T14:21:47.947Z,21.20
2022-10-28T14:24:35.642Z,18.20
2022-10-28T14:27:10.252Z,29.60
2022-10-28T14:29:46.564Z,17.30
2022-10-28T14:32:33.075Z,34.10
2022-10-28T14:35:14.696Z,24.80
2022-10-28T14:37:58.245Z,35.30
2022-10-28T14:40:40.279Z,22.20
2022-10-28T14:43:25.138Z,29.10
2022-10-28T14:46:22.801Z,23.50
2022-10-28T14:48:59.783Z,23.80
2022-10-28T14:51:37.051Z,26.70
2022-10-28T14:54:12.613Z,25.30
2022-10-28T14:56:41.639Z,16.30
2022-10-28T14:59:30.391Z,21.70
2022-10-28T15:02:14.362Z,28.10
2022-10-28T15:04:46.691Z,23.80
2022-10-28T15:07:17.673Z,26.20
2022-10-28T15:09:53.890Z,26.80
2022-10-28T15:12:30.106Z,25.00
2022-10-28T15:14:58.547Z,36.10
2022-10-28T15:17:29.451Z,25.60
2022-10-28T15:20:00.506Z,27.80
2022-10-28T15:22:32.163Z,48.20
2022-10-28T15:25:16.178Z,55.50
2022-10-28T15:27:46.054Z,49.10
2022-10-28T15:30:32.619Z,48.30
2022-10-28T15:33:20.762Z,58.60
2022-10-28T15:35:49.092Z,73.20
2022-10-28T15:38:38.119Z,48.50
2022-10-28T15:41:41.760Z,42.80
2022-10-28T15:44:26.430Z,35.50
2022-10-28T15:46:55.882Z,31.90
2022-10-28T15:49:42.256Z,29.50
2022-10-28T15:52:16.515Z,30.40
2022-10-28T15:54:55.977Z,33.00
2022-10-28T15:57:28.207Z,34.30
2022-10-28T16:00:22.007Z,31.50
2022-10-28T16:03:05.850Z,31.90
2022-10-28T16:05:39.625Z,33.80
2022-10-28T16:08:16.051Z,35.30
2022-10-28T16:10:47.218Z,32.50
2022-10-28T16:13:26.253Z,32.30
2022-10-28T16:16:03.106Z,29.30
2022-10-28T16:18:35.303Z,26.40
2022-10-28T16:21:05.069Z,32.40
2022-10-28T16:23:42.966Z,29.20
2022-10-28T16:26:12.500Z,24.00
2022-10-28T16:28:45.008Z,29.00
2022-10-28T16:31:16.562Z,25.60
2022-10-28T16:33:45.080Z,26.80
2022-10-28T16:36:13.615Z,27.80
2022-10-28T16:38:41.380Z,23.90
2022-10-28T16:41:19.091Z,29.10
2022-10-28T16:43:47.105Z,34.80
2022-10-28T16:46:15.693Z,29.30
2022-10-28T16:48:43.596Z,39.10
2022-10-28T16:51:14.975Z,40.20
2022-10-28T16:53:47.585Z,38.90
2022-10-28T16:56:16.639Z,37.20
2022-10-28T16:58:44.640Z,39.30
2022-10-28T17:01:18.176Z,35.70
2022-10-28T17:03:46.735Z,36.10
2022-10-28T17:06:14.577Z,32.90
2022-10-28T17:09:02.033Z,36.50
2022-10-28T17:13:59.392Z,35.80
2022-10-28T17:16:27.641Z,41.90
2022-10-28T17:18:55.523Z,48.50
2022-10-28T17:21:24.021Z,43.60
2022-10-28T17:23:52.299Z,48.90
2022-10-28T17:26:20.258Z,37.50
2022-10-28T17:28:52.420Z,38.50
2022-10-28T17:31:23.987Z,33.90
2022-10-28T17:33:56.254Z,32.00
2022-10-28T17:36:24.647Z,29.90
2022-10-28T17:38:52.552Z,30.20
2022-10-28T17:41:20.509Z,28.00
2022-10-28T17:43:48.753Z,29.30
2022-10-28T17:46:17.025Z,32.40
2022-10-28T17:48:44.942Z,31.00
2022-10-28T17:51:13.111Z,29.40
2022-10-28T17:53:41.005Z,23.50
2022-10-28T17:56:09.196Z,24.80
2022-10-28T17:58:37.284Z,35.70
2022-10-28T18:01:07.501Z,31.10
2022-10-28T18:03:38.511Z,32.10
2022-10-28T18:06:10.877Z,23.70
2022-10-28T18:08:42.822Z,21.90
2022-10-28T18:11:13.262Z,23.00
2022-10-28T18:16:16.630Z,27.00
2022-10-28T18:18:44.679Z,23.80
2022-10-28T18:21:13.583Z,25.80
2022-10-28T18:23:41.889Z,25.60
2022-10-28T18:26:14.815Z,77.70
2022-10-28T18:28:44.552Z,43.80
2022-10-28T18:31:12.431Z,26.60
2022-10-28T18:33:41.783Z,26.70
2022-10-28T18:36:21.201Z,24.20
2022-10-28T18:38:50.212Z,29.30
2022-10-28T18:41:20.386Z,22.30
2022-10-28T18:43:48.481Z,20.10
2022-10-28T18:46:17.361Z,23.10
2022-10-28T18:48:45.202Z,24.30
2022-10-28T18:51:13.870Z,19.30
2022-10-28T18:53:45.093Z,19.40
2022-10-28T18:56:20.959Z,16.80
2022-10-28T18:58:51.431Z,16.90
2022-10-28T19:03:56.384Z,15.60
2022-10-28T19:06:26.443Z,15.40
2022-10-28T19:08:56.495Z,15.40
2022-10-28T19:11:30.234Z,15.70
2022-10-28T19:14:05.823Z,17.90
2022-10-28T19:16:36.518Z,17.40
2022-10-28T19:19:05.762Z,21.70
2022-10-28T19:21:34.182Z,17.70
2022-10-28T19:24:02.893Z,16.20
2022-10-28T19:26:32.043Z,15.40
2022-10-28T19:29:00.151Z,14.60
2022-10-28T19:31:28.637Z,13.60
2022-10-28T19:33:56.687Z,14.10
2022-10-28T19:36:27.618Z,13.30
2022-10-28T19:38:57.890Z,14.10
2022-10-28T19:41:28.259Z,19.40
2022-10-28T19:44:01.649Z,15.40
2022-10-28T19:46:34.017Z,16.10
2022-10-28T19:49:05.263Z,25.50
2022-10-28T19:51:36.218Z,24.90
2022-10-28T19:54:07.579Z,28.10
2022-10-28T19:56:36.147Z,83.20
2022-10-28T19:59:06.055Z,37.10
2022-10-28T20:01:39.336Z,19.80
2022-10-28T20:04:10.416Z,16.30
2022-10-28T20:06:41.004Z,16.20
2022-10-28T20:09:09.480Z,19.90
2022-10-28T20:11:39.472Z,15.70
2022-10-28T20:14:11.810Z,16.10
2022-10-28T20:16:43.252Z,15.10
2022-10-28T20:19:11.782Z,16.20
2022-10-28T20:21:39.946Z,16.10
2022-10-28T20:24:08.492Z,16.80
2022-10-28T20:26:38.905Z,15.70
2022-10-28T20:29:08.985Z,17.90
2022-10-28T20:31:39.207Z,20.20
2022-10-28T20:34:08.593Z,18.70
2022-10-28T20:36:38.266Z,17.90
2022-10-28T20:39:08.957Z,18.50
2022-10-28T20:41:38.704Z,23.50
2022-10-28T20:44:07.240Z,22.00
2022-10-28T20:46:36.292Z,23.60
2022-10-28T20:49:05.828Z,20.40
2022-10-28T20:51:34.046Z,19.50
2022-10-28T20:54:02.539Z,19.60
2022-10-28T20:56:35.531Z,21.10
2022-10-28T20:59:04.616Z,18.10
2022-10-28T21:01:39.136Z,22.10
2022-10-28T21:04:09.750Z,22.70
2022-10-28T21:06:39.162Z,24.90
2022-10-28T21:09:08.123Z,21.70
2022-10-28T21:11:35.934Z,26.90
2022-10-28T21:14:03.920Z,22.70
2022-10-28T21:16:32.319Z,22.80
2022-10-28T21:19:00.492Z,20.30
2022-10-28T21:21:29.761Z,23.50
2022-10-28T21:24:00.226Z,21.70
2022-10-28T21:26:28.094Z,25.00
2022-10-28T21:28:56.735Z,24.80
2022-10-28T21:31:25.652Z,29.30
2022-10-28T21:33:53.893Z,25.20
2022-10-28T21:36:22.420Z,24.70
2022-10-28T21:38:55.390Z,24.50
2022-10-28T21:41:25.115Z,25.70
2022-10-28T21:43:54.477Z,26.30
2022-10-28T21:46:24.533Z,25.80
2022-10-28T21:48:53.883Z,24.40
2022-10-28T21:51:21.778Z,27.70
2022-10-28T21:53:49.929Z,23.50
2022-10-28T21:56:20.359Z,23.70
2022-10-28T22:01:23.877Z,23.60
2022-10-28T22:03:55.518Z,22.10
2022-10-28T22:06:24.123Z,25.90
2022-10-28T22:08:55.916Z,27.40
2022-10-28T22:11:24.590Z,25.40
2022-10-28T22:14:04.161Z,23.50
2022-10-28T22:16:34.735Z,29.00
2022-10-28T22:21:35.305Z,24.10
2022-10-28T22:24:03.153Z,22.20
2022-10-28T22:26:32.970Z,23.30
2022-10-28T22:29:00.767Z,27.10
2022-10-28T22:31:31.814Z,26.30
2022-10-28T22:34:00.736Z,21.50
2022-10-28T22:36:30.212Z,25.50
2022-10-28T22:38:58.594Z,24.40
2022-10-28T22:41:29.026Z,29.80
2022-10-28T22:43:59.712Z,28.60
2022-10-28T22:46:32.273Z,26.60
2022-10-28T22:49:00.584Z,25.50
2022-10-28T22:51:28.664Z,23.30
2022-10-28T22:53:57.143Z,27.30
2022-10-28T22:56:26.490Z,34.10
2022-10-28T22:58:56.368Z,26.00
2022-10-28T23:01:26.160Z,26.40
2022-10-28T23:03:55.659Z,27.10
2022-10-28T23:06:26.085Z,29.30
2022-10-28T23:11:23.397Z,24.90
2022-10-28T23:13:53.454Z,28.80
2022-10-28T23:16:22.980Z,26.90
2022-10-28T23:18:53.209Z,32.80
2022-10-28T23:21:25.904Z,27.60
2022-10-28T23:23:59.144Z,29.80
2022-10-28T23:26:29.237Z,29.50
2022-10-28T23:28:59.508Z,30.10
2022-10-28T23:31:28.353Z,34.00
2022-10-28T23:33:58.202Z,29.00
2022-10-28T23:36:26.577Z,29.70
2022-10-28T23:38:56.606Z,26.20
2022-10-28T23:41:24.473Z,27.20
2022-10-28T23:43:52.550Z,24.80
2022-10-28T23:46:21.588Z,28.20
2022-10-28T23:48:49.575Z,30.10
2022-10-28T23:51:19.339Z,24.70
2022-10-28T23:53:47.610Z,25.30
2022-10-28T23:56:15.367Z,22.80
2022-10-28T23:58:43.523Z,23.90
